sensor_id;sensor_type;location;lat;lon;timestamp;P1;durP1;ratioP1;P2;durP2;ratioP2
61685;SDS011;47592;45.904;8.978;2023-07-08T00:01:37;7.70;;;3.97;;
61685;SDS011;47592;45.904;8.978;2023-07-08T00:04:02;8.85;;;3.80;;
61685;SDS011;47592;45.904;8.978;2023-07-08T00:06:28;6.28;;;3.42;;
61685;SDS011;47592;45.904;8.978;2023-07-08T00:08:54;9.55;;;3.80;;
61685;SDS011;47592;45.904;8.978;2023-07-08T00:11:20;7.15;;;3.53;;
61685;SDS011;47592;45.904;8.978;2023-07-08T00:13:45;7.47;;;4.10;;
61685;SDS011;47592;45.904;8.978;2023-07-08T00:16:11;8.20;;;3.90;;
61685;SDS011;47592;45.904;8.978;2023-07-08T00:18:37;7.05;;;3.70;;
61685;SDS011;47592;45.904;8.978;2023-07-08T00:21:13;6.93;;;3.53;;
61685;SDS011;47592;45.904;8.978;2023-07-08T00:23:47;10.32;;;3.53;;
61685;SDS011;47592;45.904;8.978;2023-07-08T00:26:15;8.40;;;3.85;;
61685;SDS011;47592;45.904;8.978;2023-07-08T00:28:44;8.45;;;3.58;;
61685;SDS011;47592;45.904;8.978;2023-07-08T00:31:10;7.77;;;4.00;;
61685;SDS011;47592;45.904;8.978;2023-07-08T00:33:35;8.23;;;4.20;;
61685;SDS011;47592;45.904;8.978;2023-07-08T00:36:01;8.23;;;3.67;;
61685;SDS011;47592;45.904;8.978;2023-07-08T00:38:26;9.07;;;4.03;;
61685;SDS011;47592;45.904;8.978;2023-07-08T00:40:53;8.93;;;3.67;;
61685;SDS011;47592;45.904;8.978;2023-07-08T00:43:32;8.73;;;3.75;;
61685;SDS011;47592;45.904;8.978;2023-07-08T00:46:49;6.65;;;3.47;;
61685;SDS011;47592;45.904;8.978;2023-07-08T00:48:49;7.97;;;3.67;;
61685;SDS011;47592;45.904;8.978;2023-07-08T00:51:17;6.50;;;3.65;;
61685;SDS011;47592;45.904;8.978;2023-07-08T00:53:42;7.13;;;3.75;;
61685;SDS011;47592;45.904;8.978;2023-07-08T00:56:16;9.07;;;3.72;;
61685;SDS011;47592;45.904;8.978;2023-07-08T01:01:19;8.50;;;4.03;;
61685;SDS011;47592;45.904;8.978;2023-07-08T01:03:48;6.93;;;3.47;;
61685;SDS011;47592;45.904;8.978;2023-07-08T01:06:18;7.18;;;3.47;;
61685;SDS011;47592;45.904;8.978;2023-07-08T01:08:44;7.95;;;3.55;;
61685;SDS011;47592;45.904;8.978;2023-07-08T01:11:10;7.53;;;3.80;;
61685;SDS011;47592;45.904;8.978;2023-07-08T01:13:37;9.57;;;4.15;;
61685;SDS011;47592;45.904;8.978;2023-07-08T01:16:05;8.93;;;3.40;;
61685;SDS011;47592;45.904;8.978;2023-07-08T01:18:33;7.07;;;3.20;;
61685;SDS011;47592;45.904;8.978;2023-07-08T01:21:02;10.05;;;3.95;;
61685;SDS011;47592;45.904;8.978;2023-07-08T01:23:31;8.90;;;3.55;;
61685;SDS011;47592;45.904;8.978;2023-07-08T01:25:56;6.95;;;3.35;;
61685;SDS011;47592;45.904;8.978;2023-07-08T01:28:21;8.88;;;3.72;;
61685;SDS011;47592;45.904;8.978;2023-07-08T01:30:49;7.18;;;3.75;;
61685;SDS011;47592;45.904;8.978;2023-07-08T01:33:16;7.93;;;3.65;;
61685;SDS011;47592;45.904;8.978;2023-07-08T01:35:42;7.30;;;3.30;;
61685;SDS011;47592;45.904;8.978;2023-07-08T01:38:08;9.18;;;3.30;;
61685;SDS011;47592;45.904;8.978;2023-07-08T01:40:36;7.65;;;3.42;;
61685;SDS011;47592;45.904;8.978;2023-07-08T01:43:02;8.07;;;3.17;;
61685;SDS011;47592;45.904;8.978;2023-07-08T01:45:35;6.85;;;3.58;;
61685;SDS011;47592;45.904;8.978;2023-07-08T01:48:05;5.97;;;3.17;;
61685;SDS011;47592;45.904;8.978;2023-07-08T01:50:32;8.30;;;3.33;;
61685;SDS011;47592;45.904;8.978;2023-07-08T01:53:00;7.72;;;3.33;;
61685;SDS011;47592;45.904;8.978;2023-07-08T01:55:27;7.68;;;3.50;;
61685;SDS011;47592;45.904;8.978;2023-07-08T01:57:56;6.47;;;3.40;;
61685;SDS011;47592;45.904;8.978;2023-07-08T02:00:22;6.93;;;3.65;;
61685;SDS011;47592;45.904;8.978;2023-07-08T02:02:47;6.82;;;3.40;;
61685;SDS011;47592;45.904;8.978;2023-07-08T02:05:13;7.75;;;3.40;;
61685;SDS011;47592;45.904;8.978;2023-07-08T02:07:38;6.72;;;3.20;;
61685;SDS011;47592;45.904;8.978;2023-07-08T02:10:04;6.80;;;3.10;;
61685;SDS011;47592;45.904;8.978;2023-07-08T02:12:29;10.55;;;3.30;;
61685;SDS011;47592;45.904;8.978;2023-07-08T02:14:54;7.13;;;3.53;;
61685;SDS011;47592;45.904;8.978;2023-07-08T02:17:19;7.77;;;3.10;;
61685;SDS011;47592;45.904;8.978;2023-07-08T02:19:47;8.35;;;3.65;;
61685;SDS011;47592;45.904;8.978;2023-07-08T02:22:15;6.20;;;3.33;;
61685;SDS011;47592;45.904;8.978;2023-07-08T02:24:42;6.93;;;3.33;;
61685;SDS011;47592;45.904;8.978;2023-07-08T02:27:08;7.90;;;3.70;;
61685;SDS011;47592;45.904;8.978;2023-07-08T02:29:33;9.47;;;3.70;;
61685;SDS011;47592;45.904;8.978;2023-07-08T02:31:58;7.70;;;3.63;;
61685;SDS011;47592;45.904;8.978;2023-07-08T02:34:30;6.60;;;3.60;;
61685;SDS011;47592;45.904;8.978;2023-07-08T02:37:01;7.43;;;3.47;;
61685;SDS011;47592;45.904;8.978;2023-07-08T02:39:26;6.78;;;3.55;;
61685;SDS011;47592;45.904;8.978;2023-07-08T02:41:51;9.33;;;3.50;;
61685;SDS011;47592;45.904;8.978;2023-07-08T02:44:19;8.25;;;3.80;;
61685;SDS011;47592;45.904;8.978;2023-07-08T02:46:46;6.40;;;3.40;;
61685;SDS011;47592;45.904;8.978;2023-07-08T02:49:13;7.28;;;3.65;;
61685;SDS011;47592;45.904;8.978;2023-07-08T02:51:41;7.65;;;3.63;;
61685;SDS011;47592;45.904;8.978;2023-07-08T02:54:06;7.93;;;4.00;;
61685;SDS011;47592;45.904;8.978;2023-07-08T02:56:31;7.87;;;3.70;;
61685;SDS011;47592;45.904;8.978;2023-07-08T02:58:57;9.90;;;3.37;;
61685;SDS011;47592;45.904;8.978;2023-07-08T03:01:22;7.67;;;3.40;;
61685;SDS011;47592;45.904;8.978;2023-07-08T03:03:48;6.50;;;3.45;;
61685;SDS011;47592;45.904;8.978;2023-07-08T03:06:22;12.07;;;4.57;;
61685;SDS011;47592;45.904;8.978;2023-07-08T03:08:47;13.13;;;5.30;;
61685;SDS011;47592;45.904;8.978;2023-07-08T03:11:15;11.97;;;5.33;;
61685;SDS011;47592;45.904;8.978;2023-07-08T03:13:40;10.15;;;4.47;;
61685;SDS011;47592;45.904;8.978;2023-07-08T03:16:08;11.73;;;5.07;;
61685;SDS011;47592;45.904;8.978;2023-07-08T03:18:37;11.95;;;4.63;;
61685;SDS011;47592;45.904;8.978;2023-07-08T03:21:13;13.15;;;5.32;;
61685;SDS011;47592;45.904;8.978;2023-07-08T03:23:41;13.88;;;5.47;;
61685;SDS011;47592;45.904;8.978;2023-07-08T03:26:07;11.25;;;4.85;;
61685;SDS011;47592;45.904;8.978;2023-07-08T03:28:32;14.70;;;5.80;;
61685;SDS011;47592;45.904;8.978;2023-07-08T03:30:57;8.30;;;4.37;;
61685;SDS011;47592;45.904;8.978;2023-07-08T03:33:23;10.70;;;4.37;;
61685;SDS011;47592;45.904;8.978;2023-07-08T03:35:49;9.85;;;4.47;;
61685;SDS011;47592;45.904;8.978;2023-07-08T03:38:14;12.82;;;6.53;;
61685;SDS011;47592;45.904;8.978;2023-07-08T03:40:42;13.40;;;6.93;;
61685;SDS011;47592;45.904;8.978;2023-07-08T03:43:07;13.93;;;6.93;;
61685;SDS011;47592;45.904;8.978;2023-07-08T03:45:33;11.90;;;6.80;;
61685;SDS011;47592;45.904;8.978;2023-07-08T03:47:58;8.20;;;4.63;;
61685;SDS011;47592;45.904;8.978;2023-07-08T03:50:24;11.82;;;5.00;;
61685;SDS011;47592;45.904;8.978;2023-07-08T03:52:50;9.60;;;4.63;;
61685;SDS011;47592;45.904;8.978;2023-07-08T03:55:16;9.05;;;4.60;;
61685;SDS011;47592;45.904;8.978;2023-07-08T03:57:43;8.68;;;4.53;;
61685;SDS011;47592;45.904;8.978;2023-07-08T04:00:09;11.77;;;5.43;;
61685;SDS011;47592;45.904;8.978;2023-07-08T04:02:37;10.85;;;5.45;;
61685;SDS011;47592;45.904;8.978;2023-07-08T04:05:02;12.98;;;6.65;;
61685;SDS011;47592;45.904;8.978;2023-07-08T04:07:28;10.05;;;5.95;;
61685;SDS011;47592;45.904;8.978;2023-07-08T04:09:53;10.93;;;6.43;;
61685;SDS011;47592;45.904;8.978;2023-07-08T04:12:21;12.98;;;6.28;;
61685;SDS011;47592;45.904;8.978;2023-07-08T04:14:46;13.13;;;6.07;;
61685;SDS011;47592;45.904;8.978;2023-07-08T04:17:11;10.43;;;5.70;;
61685;SDS011;47592;45.904;8.978;2023-07-08T04:19:37;11.95;;;5.95;;
61685;SDS011;47592;45.904;8.978;2023-07-08T04:22:04;11.50;;;5.30;;
61685;SDS011;47592;45.904;8.978;2023-07-08T04:24:33;9.35;;;5.18;;
61685;SDS011;47592;45.904;8.978;2023-07-08T04:27:01;8.95;;;5.10;;
61685;SDS011;47592;45.904;8.978;2023-07-08T04:29:29;11.83;;;5.57;;
61685;SDS011;47592;45.904;8.978;2023-07-08T04:31:54;8.63;;;4.77;;
61685;SDS011;47592;45.904;8.978;2023-07-08T04:34:20;9.37;;;4.83;;
61685;SDS011;47592;45.904;8.978;2023-07-08T04:36:45;7.78;;;4.43;;
61685;SDS011;47592;45.904;8.978;2023-07-08T04:39:11;8.57;;;4.80;;
61685;SDS011;47592;45.904;8.978;2023-07-08T04:41:36;8.75;;;4.38;;
61685;SDS011;47592;45.904;8.978;2023-07-08T04:44:09;10.02;;;4.70;;
61685;SDS011;47592;45.904;8.978;2023-07-08T04:46:37;10.68;;;5.28;;
61685;SDS011;47592;45.904;8.978;2023-07-08T04:49:05;8.80;;;5.20;;
61685;SDS011;47592;45.904;8.978;2023-07-08T04:51:34;8.05;;;4.25;;
61685;SDS011;47592;45.904;8.978;2023-07-08T04:54:00;7.95;;;4.45;;
61685;SDS011;47592;45.904;8.978;2023-07-08T04:56:26;10.93;;;5.50;;
61685;SDS011;47592;45.904;8.978;2023-07-08T04:59:00;10.77;;;4.50;;
61685;SDS011;47592;45.904;8.978;2023-07-08T05:01:26;8.52;;;4.95;;
61685;SDS011;47592;45.904;8.978;2023-07-08T05:03:52;11.30;;;4.55;;
61685;SDS011;47592;45.904;8.978;2023-07-08T05:06:17;10.13;;;4.72;;
61685;SDS011;47592;45.904;8.978;2023-07-08T05:08:45;8.63;;;4.80;;
61685;SDS011;47592;45.904;8.978;2023-07-08T05:11:10;9.25;;;5.10;;
61685;SDS011;47592;45.904;8.978;2023-07-08T05:13:35;9.70;;;4.80;;
61685;SDS011;47592;45.904;8.978;2023-07-08T05:16:03;9.50;;;5.07;;
61685;SDS011;47592;45.904;8.978;2023-07-08T05:18:28;9.98;;;5.25;;
61685;SDS011;47592;45.904;8.978;2023-07-08T05:20:58;8.57;;;5.20;;
61685;SDS011;47592;45.904;8.978;2023-07-08T05:23:24;9.82;;;5.10;;
61685;SDS011;47592;45.904;8.978;2023-07-08T05:25:49;10.47;;;5.60;;
61685;SDS011;47592;45.904;8.978;2023-07-08T05:28:14;7.83;;;5.03;;
61685;SDS011;47592;45.904;8.978;2023-07-08T05:30:40;11.93;;;5.38;;
61685;SDS011;47592;45.904;8.978;2023-07-08T05:33:08;11.57;;;5.20;;
61685;SDS011;47592;45.904;8.978;2023-07-08T05:35:34;10.82;;;4.85;;
61685;SDS011;47592;45.904;8.978;2023-07-08T05:37:59;10.18;;;5.90;;
61685;SDS011;47592;45.904;8.978;2023-07-08T05:40:25;9.98;;;5.45;;
61685;SDS011;47592;45.904;8.978;2023-07-08T05:42:53;8.23;;;5.22;;
61685;SDS011;47592;45.904;8.978;2023-07-08T05:45:18;9.33;;;5.60;;
61685;SDS011;47592;45.904;8.978;2023-07-08T05:47:43;8.70;;;4.70;;
61685;SDS011;47592;45.904;8.978;2023-07-08T05:50:11;8.65;;;4.85;;
61685;SDS011;47592;45.904;8.978;2023-07-08T05:52:38;9.07;;;5.10;;
61685;SDS011;47592;45.904;8.978;2023-07-08T05:55:04;9.43;;;5.30;;
61685;SDS011;47592;45.904;8.978;2023-07-08T05:57:29;10.32;;;5.63;;
61685;SDS011;47592;45.904;8.978;2023-07-08T05:59:54;9.73;;;5.33;;
61685;SDS011;47592;45.904;8.978;2023-07-08T06:02:20;9.73;;;5.00;;
61685;SDS011;47592;45.904;8.978;2023-07-08T06:04:48;8.55;;;4.80;;
61685;SDS011;47592;45.904;8.978;2023-07-08T06:07:13;10.43;;;5.20;;
61685;SDS011;47592;45.904;8.978;2023-07-08T06:09:38;11.02;;;5.28;;
61685;SDS011;47592;45.904;8.978;2023-07-08T06:12:04;8.77;;;5.00;;
61685;SDS011;47592;45.904;8.978;2023-07-08T06:14:29;9.07;;;5.43;;
61685;SDS011;47592;45.904;8.978;2023-07-08T06:16:54;11.40;;;5.47;;
61685;SDS011;47592;45.904;8.978;2023-07-08T06:19:20;7.80;;;4.93;;
61685;SDS011;47592;45.904;8.978;2023-07-08T06:21:45;10.02;;;4.63;;
61685;SDS011;47592;45.904;8.978;2023-07-08T06:24:11;9.83;;;4.70;;
61685;SDS011;47592;45.904;8.978;2023-07-08T06:26:36;10.77;;;8.20;;
61685;SDS011;47592;45.904;8.978;2023-07-08T06:29:01;11.45;;;7.97;;
61685;SDS011;47592;45.904;8.978;2023-07-08T06:31:27;12.60;;;10.10;;
61685;SDS011;47592;45.904;8.978;2023-07-08T06:33:55;10.70;;;6.65;;
61685;SDS011;47592;45.904;8.978;2023-07-08T06:36:23;9.88;;;6.25;;
61685;SDS011;47592;45.904;8.978;2023-07-08T06:38:48;10.82;;;6.15;;
61685;SDS011;47592;45.904;8.978;2023-07-08T06:41:13;9.57;;;4.78;;
61685;SDS011;47592;45.904;8.978;2023-07-08T06:43:41;8.80;;;4.18;;
61685;SDS011;47592;45.904;8.978;2023-07-08T06:46:06;8.35;;;4.30;;
61685;SDS011;47592;45.904;8.978;2023-07-08T06:48:32;8.40;;;4.90;;
61685;SDS011;47592;45.904;8.978;2023-07-08T06:50:57;8.02;;;4.57;;
61685;SDS011;47592;45.904;8.978;2023-07-08T06:53:23;7.88;;;4.30;;
61685;SDS011;47592;45.904;8.978;2023-07-08T06:55:48;9.77;;;4.67;;
61685;SDS011;47592;45.904;8.978;2023-07-08T06:58:14;10.35;;;5.20;;
61685;SDS011;47592;45.904;8.978;2023-07-08T07:00:43;8.40;;;4.70;;
61685;SDS011;47592;45.904;8.978;2023-07-08T07:03:08;9.60;;;4.35;;
61685;SDS011;47592;45.904;8.978;2023-07-08T07:05:37;8.43;;;4.40;;
61685;SDS011;47592;45.904;8.978;2023-07-08T07:08:02;8.63;;;4.63;;
61685;SDS011;47592;45.904;8.978;2023-07-08T07:10:27;7.93;;;4.55;;
61685;SDS011;47592;45.904;8.978;2023-07-08T07:12:53;9.83;;;7.10;;
61685;SDS011;47592;45.904;8.978;2023-07-08T07:15:18;12.40;;;9.00;;
61685;SDS011;47592;45.904;8.978;2023-07-08T07:17:43;10.77;;;5.90;;
61685;SDS011;47592;45.904;8.978;2023-07-08T07:20:09;10.90;;;5.30;;
61685;SDS011;47592;45.904;8.978;2023-07-08T07:22:37;8.32;;;5.35;;
61685;SDS011;47592;45.904;8.978;2023-07-08T07:25:03;27.65;;;17.05;;
61685;SDS011;47592;45.904;8.978;2023-07-08T07:27:30;14.85;;;8.85;;
61685;SDS011;47592;45.904;8.978;2023-07-08T07:30:00;12.20;;;7.90;;
61685;SDS011;47592;45.904;8.978;2023-07-08T07:32:26;10.25;;;6.05;;
61685;SDS011;47592;45.904;8.978;2023-07-08T07:34:51;9.98;;;5.53;;
61685;SDS011;47592;45.904;8.978;2023-07-08T07:37:19;9.95;;;6.30;;
61685;SDS011;47592;45.904;8.978;2023-07-08T07:39:50;8.23;;;5.35;;
61685;SDS011;47592;45.904;8.978;2023-07-08T07:42:18;11.57;;;5.35;;
61685;SDS011;47592;45.904;8.978;2023-07-08T07:44:44;8.15;;;5.13;;
61685;SDS011;47592;45.904;8.978;2023-07-08T07:47:12;10.82;;;5.95;;
61685;SDS011;47592;45.904;8.978;2023-07-08T07:49:37;8.95;;;4.80;;
61685;SDS011;47592;45.904;8.978;2023-07-08T07:52:03;9.30;;;5.10;;
61685;SDS011;47592;45.904;8.978;2023-07-08T07:54:28;8.35;;;4.28;;
61685;SDS011;47592;45.904;8.978;2023-07-08T07:56:54;9.40;;;5.13;;
61685;SDS011;47592;45.904;8.978;2023-07-08T07:59:19;7.18;;;4.10;;
61685;SDS011;47592;45.904;8.978;2023-07-08T08:01:45;8.05;;;4.20;;
61685;SDS011;47592;45.904;8.978;2023-07-08T08:04:11;8.18;;;4.68;;
61685;SDS011;47592;45.904;8.978;2023-07-08T08:06:40;7.63;;;4.32;;
61685;SDS011;47592;45.904;8.978;2023-07-08T08:09:06;6.97;;;4.10;;
61685;SDS011;47592;45.904;8.978;2023-07-08T08:11:31;9.35;;;4.50;;
61685;SDS011;47592;45.904;8.978;2023-07-08T08:13:59;8.98;;;4.75;;
61685;SDS011;47592;45.904;8.978;2023-07-08T08:16:25;7.93;;;4.35;;
61685;SDS011;47592;45.904;8.978;2023-07-08T08:18:50;8.77;;;4.03;;
61685;SDS011;47592;45.904;8.978;2023-07-08T08:21:16;8.32;;;4.43;;
61685;SDS011;47592;45.904;8.978;2023-07-08T08:23:41;8.77;;;4.43;;
61685;SDS011;47592;45.904;8.978;2023-07-08T08:26:07;7.88;;;3.90;;
61685;SDS011;47592;45.904;8.978;2023-07-08T08:28:32;8.13;;;4.17;;
61685;SDS011;47592;45.904;8.978;2023-07-08T08:30:57;9.00;;;4.23;;
61685;SDS011;47592;45.904;8.978;2023-07-08T08:33:22;9.13;;;4.13;;
61685;SDS011;47592;45.904;8.978;2023-07-08T08:35:50;7.63;;;4.40;;
61685;SDS011;47592;45.904;8.978;2023-07-08T08:38:20;8.75;;;4.53;;
61685;SDS011;47592;45.904;8.978;2023-07-08T08:40:48;14.13;;;7.32;;
61685;SDS011;47592;45.904;8.978;2023-07-08T08:43:14;20.37;;;12.20;;
61685;SDS011;47592;45.904;8.978;2023-07-08T08:48:38;9.88;;;5.93;;
61685;SDS011;47592;45.904;8.978;2023-07-08T08:51:07;9.25;;;4.70;;
61685;SDS011;47592;45.904;8.978;2023-07-08T08:53:34;8.40;;;4.00;;
61685;SDS011;47592;45.904;8.978;2023-07-08T08:56:12;17.67;;;8.93;;
61685;SDS011;47592;45.904;8.978;2023-07-08T09:01:16;59.88;;;26.15;;
61685;SDS011;47592;45.904;8.978;2023-07-08T09:04:01;27.83;;;14.68;;
61685;SDS011;47592;45.904;8.978;2023-07-08T09:06:31;8.82;;;5.00;;
61685;SDS011;47592;45.904;8.978;2023-07-08T09:09:02;9.82;;;4.78;;
61685;SDS011;47592;45.904;8.978;2023-07-08T09:13:57;7.60;;;4.20;;
61685;SDS011;47592;45.904;8.978;2023-07-08T09:19:35;6.60;;;3.83;;
61685;SDS011;47592;45.904;8.978;2023-07-08T09:22:01;8.93;;;3.88;;
61685;SDS011;47592;45.904;8.978;2023-07-08T09:26:57;6.72;;;3.83;;
61685;SDS011;47592;45.904;8.978;2023-07-08T09:29:25;9.13;;;3.77;;
61685;SDS011;47592;45.904;8.978;2023-07-08T09:31:51;8.73;;;4.18;;
61685;SDS011;47592;45.904;8.978;2023-07-08T09:34:19;7.88;;;4.00;;
61685;SDS011;47592;45.904;8.978;2023-07-08T09:36:50;7.72;;;4.55;;
61685;SDS011;47592;45.904;8.978;2023-07-08T09:39:17;9.40;;;4.30;;
61685;SDS011;47592;45.904;8.978;2023-07-08T09:41:43;8.40;;;4.20;;
61685;SDS011;47592;45.904;8.978;2023-07-08T09:44:17;7.60;;;4.13;;
61685;SDS011;47592;45.904;8.978;2023-07-08T09:46:45;8.52;;;3.88;;
61685;SDS011;47592;45.904;8.978;2023-07-08T09:49:21;7.18;;;4.18;;
61685;SDS011;47592;45.904;8.978;2023-07-08T09:51:47;7.22;;;3.58;;
61685;SDS011;47592;45.904;8.978;2023-07-08T09:54:15;6.97;;;3.72;;
61685;SDS011;47592;45.904;8.978;2023-07-08T09:56:47;6.05;;;3.65;;
61685;SDS011;47592;45.904;8.978;2023-07-08T09:59:16;7.65;;;3.90;;
61685;SDS011;47592;45.904;8.978;2023-07-08T10:01:43;7.47;;;3.75;;
61685;SDS011;47592;45.904;8.978;2023-07-08T10:04:08;8.40;;;3.78;;
61685;SDS011;47592;45.904;8.978;2023-07-08T10:06:34;6.60;;;3.65;;
61685;SDS011;47592;45.904;8.978;2023-07-08T10:09:04;8.48;;;3.78;;
61685;SDS011;47592;45.904;8.978;2023-07-08T10:11:31;7.10;;;3.83;;
61685;SDS011;47592;45.904;8.978;2023-07-08T10:13:59;8.57;;;3.80;;
61685;SDS011;47592;45.904;8.978;2023-07-08T10:16:29;9.90;;;4.07;;
61685;SDS011;47592;45.904;8.978;2023-07-08T10:18:56;10.70;;;5.00;;
61685;SDS011;47592;45.904;8.978;2023-07-08T10:26:27;7.72;;;3.70;;
61685;SDS011;47592;45.904;8.978;2023-07-08T10:34:18;9.10;;;4.10;;
61685;SDS011;47592;45.904;8.978;2023-07-08T10:39:25;7.18;;;3.97;;
61685;SDS011;47592;45.904;8.978;2023-07-08T10:55:07;8.90;;;4.18;;
61685;SDS011;47592;45.904;8.978;2023-07-08T11:05:42;6.80;;;4.00;;
61685;SDS011;47592;45.904;8.978;2023-07-08T11:10:40;7.27;;;3.70;;
61685;SDS011;47592;45.904;8.978;2023-07-08T11:13:12;8.77;;;3.85;;
61685;SDS011;47592;45.904;8.978;2023-07-08T11:23:05;8.25;;;3.90;;
61685;SDS011;47592;45.904;8.978;2023-07-08T11:25:34;7.63;;;3.67;;
61685;SDS011;47592;45.904;8.978;2023-07-08T11:28:01;7.05;;;3.47;;
61685;SDS011;47592;45.904;8.978;2023-07-08T11:30:28;9.02;;;3.75;;
61685;SDS011;47592;45.904;8.978;2023-07-08T11:33:04;8.10;;;3.83;;
61685;SDS011;47592;45.904;8.978;2023-07-08T11:38:05;7.00;;;3.50;;
61685;SDS011;47592;45.904;8.978;2023-07-08T11:40:37;7.60;;;3.20;;
61685;SDS011;47592;45.904;8.978;2023-07-08T11:43:03;5.88;;;3.42;;
61685;SDS011;47592;45.904;8.978;2023-07-08T11:45:38;8.13;;;3.50;;
61685;SDS011;47592;45.904;8.978;2023-07-08T11:48:10;7.07;;;3.30;;
61685;SDS011;47592;45.904;8.978;2023-07-08T11:50:40;6.53;;;3.20;;
61685;SDS011;47592;45.904;8.978;2023-07-08T11:53:10;7.25;;;3.67;;
61685;SDS011;47592;45.904;8.978;2023-07-08T11:55:55;7.43;;;3.67;;
61685;SDS011;47592;45.904;8.978;2023-07-08T11:58:22;6.65;;;3.38;;
61685;SDS011;47592;45.904;8.978;2023-07-08T12:00:57;7.45;;;3.25;;
61685;SDS011;47592;45.904;8.978;2023-07-08T12:05:56;6.55;;;3.38;;
61685;SDS011;47592;45.904;8.978;2023-07-08T12:08:32;7.63;;;3.38;;
61685;SDS011;47592;45.904;8.978;2023-07-08T12:10:57;6.65;;;3.72;;
61685;SDS011;47592;45.904;8.978;2023-07-08T12:13:24;9.35;;;3.50;;
61685;SDS011;47592;45.904;8.978;2023-07-08T12:15:49;7.18;;;3.40;;
61685;SDS011;47592;45.904;8.978;2023-07-08T12:18:22;8.50;;;3.20;;
61685;SDS011;47592;45.904;8.978;2023-07-08T12:20:51;9.30;;;3.63;;
61685;SDS011;47592;45.904;8.978;2023-07-08T12:23:26;6.70;;;3.75;;
61685;SDS011;47592;45.904;8.978;2023-07-08T12:25:52;7.13;;;3.35;;
61685;SDS011;47592;45.904;8.978;2023-07-08T12:28:18;6.57;;;3.28;;
61685;SDS011;47592;45.904;8.978;2023-07-08T12:30:44;8.38;;;3.10;;
61685;SDS011;47592;45.904;8.978;2023-07-08T12:33:12;6.30;;;3.20;;
61685;SDS011;47592;45.904;8.978;2023-07-08T12:35:38;7.95;;;3.55;;
61685;SDS011;47592;45.904;8.978;2023-07-08T12:38:09;9.27;;;3.33;;
61685;SDS011;47592;45.904;8.978;2023-07-08T12:40:38;6.47;;;3.10;;
61685;SDS011;47592;45.904;8.978;2023-07-08T12:43:07;6.60;;;2.92;;
61685;SDS011;47592;45.904;8.978;2023-07-08T12:45:33;7.28;;;2.92;;
61685;SDS011;47592;45.904;8.978;2023-07-08T12:47:59;7.15;;;3.13;;
61685;SDS011;47592;45.904;8.978;2023-07-08T12:50:26;6.43;;;2.97;;
61685;SDS011;47592;45.904;8.978;2023-07-08T12:52:54;8.10;;;2.90;;
61685;SDS011;47592;45.904;8.978;2023-07-08T12:55:22;6.35;;;2.67;;
61685;SDS011;47592;45.904;8.978;2023-07-08T12:57:49;7.20;;;3.30;;
61685;SDS011;47592;45.904;8.978;2023-07-08T13:02:52;6.55;;;3.33;;
61685;SDS011;47592;45.904;8.978;2023-07-08T13:05:23;6.55;;;3.40;;
61685;SDS011;47592;45.904;8.978;2023-07-08T13:07:50;7.60;;;3.60;;
61685;SDS011;47592;45.904;8.978;2023-07-08T13:10:20;6.57;;;3.28;;
61685;SDS011;47592;45.904;8.978;2023-07-08T13:12:47;6.28;;;3.17;;
61685;SDS011;47592;45.904;8.978;2023-07-08T13:15:17;6.28;;;3.30;;
61685;SDS011;47592;45.904;8.978;2023-07-08T13:17:45;9.07;;;3.42;;
61685;SDS011;47592;45.904;8.978;2023-07-08T13:20:13;6.13;;;3.22;;
61685;SDS011;47592;45.904;8.978;2023-07-08T13:22:41;6.97;;;3.50;;
61685;SDS011;47592;45.904;8.978;2023-07-08T13:25:13;7.10;;;3.40;;
61685;SDS011;47592;45.904;8.978;2023-07-08T13:27:39;6.22;;;2.83;;
61685;SDS011;47592;45.904;8.978;2023-07-08T13:30:10;7.00;;;2.90;;
61685;SDS011;47592;45.904;8.978;2023-07-08T13:32:39;6.35;;;3.20;;
61685;SDS011;47592;45.904;8.978;2023-07-08T13:35:04;9.10;;;3.57;;
61685;SDS011;47592;45.904;8.978;2023-07-08T13:37:32;5.93;;;3.05;;
61685;SDS011;47592;45.904;8.978;2023-07-08T13:40:00;7.70;;;3.17;;
61685;SDS011;47592;45.904;8.978;2023-07-08T13:42:29;6.88;;;3.03;;
61685;SDS011;47592;45.904;8.978;2023-07-08T13:44:54;8.20;;;3.00;;
61685;SDS011;47592;45.904;8.978;2023-07-08T13:47:25;7.60;;;2.90;;
61685;SDS011;47592;45.904;8.978;2023-07-08T13:49:54;6.20;;;2.42;;
61685;SDS011;47592;45.904;8.978;2023-07-08T13:52:21;7.13;;;2.50;;
61685;SDS011;47592;45.904;8.978;2023-07-08T13:54:48;5.65;;;2.70;;
61685;SDS011;47592;45.904;8.978;2023-07-08T13:57:16;8.52;;;3.00;;
61685;SDS011;47592;45.904;8.978;2023-07-08T13:59:41;6.22;;;3.05;;
61685;SDS011;47592;45.904;8.978;2023-07-08T14:02:20;5.23;;;2.67;;
61685;SDS011;47592;45.904;8.978;2023-07-08T14:04:48;5.53;;;2.70;;
61685;SDS011;47592;45.904;8.978;2023-07-08T14:07:18;5.50;;;3.00;;
61685;SDS011;47592;45.904;8.978;2023-07-08T14:09:46;7.53;;;3.10;;
61685;SDS011;47592;45.904;8.978;2023-07-08T14:12:11;7.72;;;2.80;;
61685;SDS011;47592;45.904;8.978;2023-07-08T14:14:37;7.03;;;3.10;;
61685;SDS011;47592;45.904;8.978;2023-07-08T14:17:02;6.47;;;2.90;;
61685;SDS011;47592;45.904;8.978;2023-07-08T14:19:32;5.65;;;2.78;;
61685;SDS011;47592;45.904;8.978;2023-07-08T14:22:01;5.72;;;2.70;;
61685;SDS011;47592;45.904;8.978;2023-07-08T14:24:27;9.52;;;3.30;;
61685;SDS011;47592;45.904;8.978;2023-07-08T14:26:52;6.77;;;2.90;;
61685;SDS011;47592;45.904;8.978;2023-07-08T14:29:18;7.70;;;3.28;;
61685;SDS011;47592;45.904;8.978;2023-07-08T14:31:43;6.55;;;3.00;;
61685;SDS011;47592;45.904;8.978;2023-07-08T14:34:11;6.68;;;3.10;;
61685;SDS011;47592;45.904;8.978;2023-07-08T14:36:37;6.97;;;3.20;;
61685;SDS011;47592;45.904;8.978;2023-07-08T14:39:12;6.27;;;3.10;;
61685;SDS011;47592;45.904;8.978;2023-07-08T14:41:38;7.00;;;3.05;;
61685;SDS011;47592;45.904;8.978;2023-07-08T14:46:40;8.80;;;3.13;;
61685;SDS011;47592;45.904;8.978;2023-07-08T14:49:09;7.80;;;3.20;;
61685;SDS011;47592;45.904;8.978;2023-07-08T14:51:37;7.65;;;2.78;;
61685;SDS011;47592;45.904;8.978;2023-07-08T14:54:02;7.53;;;3.10;;
61685;SDS011;47592;45.904;8.978;2023-07-08T14:56:27;5.60;;;3.20;;
61685;SDS011;47592;45.904;8.978;2023-07-08T14:58:55;6.03;;;3.03;;
61685;SDS011;47592;45.904;8.978;2023-07-08T15:01:20;7.33;;;3.00;;
61685;SDS011;47592;45.904;8.978;2023-07-08T15:03:46;7.22;;;2.90;;
61685;SDS011;47592;45.904;8.978;2023-07-08T15:06:11;6.43;;;3.00;;
61685;SDS011;47592;45.904;8.978;2023-07-08T15:08:39;7.72;;;3.13;;
61685;SDS011;47592;45.904;8.978;2023-07-08T15:11:04;8.20;;;3.27;;
61685;SDS011;47592;45.904;8.978;2023-07-08T15:13:32;8.38;;;2.88;;
61685;SDS011;47592;45.904;8.978;2023-07-08T15:15:57;6.20;;;2.90;;
61685;SDS011;47592;45.904;8.978;2023-07-08T15:18:26;6.55;;;2.80;;
61685;SDS011;47592;45.904;8.978;2023-07-08T15:20:51;6.30;;;2.90;;
61685;SDS011;47592;45.904;8.978;2023-07-08T15:23:17;7.38;;;3.00;;
61685;SDS011;47592;45.904;8.978;2023-07-08T15:25:44;7.32;;;2.90;;
61685;SDS011;47592;45.904;8.978;2023-07-08T15:28:20;6.90;;;3.05;;
61685;SDS011;47592;45.904;8.978;2023-07-08T15:30:48;6.93;;;3.17;;
61685;SDS011;47592;45.904;8.978;2023-07-08T15:33:14;7.70;;;3.30;;
61685;SDS011;47592;45.904;8.978;2023-07-08T15:35:40;7.85;;;2.95;;
61685;SDS011;47592;45.904;8.978;2023-07-08T15:38:08;5.93;;;2.63;;
61685;SDS011;47592;45.904;8.978;2023-07-08T15:40:34;5.88;;;3.03;;
61685;SDS011;47592;45.904;8.978;2023-07-08T15:43:00;7.07;;;3.30;;
61685;SDS011;47592;45.904;8.978;2023-07-08T15:45:33;7.72;;;2.90;;
61685;SDS011;47592;45.904;8.978;2023-07-08T15:47:59;6.70;;;3.00;;
61685;SDS011;47592;45.904;8.978;2023-07-08T15:50:25;5.80;;;2.67;;
61685;SDS011;47592;45.904;8.978;2023-07-08T15:55:25;6.25;;;2.70;;
61685;SDS011;47592;45.904;8.978;2023-07-08T15:57:55;6.65;;;3.28;;
61685;SDS011;47592;45.904;8.978;2023-07-08T16:00:23;8.75;;;3.20;;